createdAt,value
2022-09-29T00:01:01.608Z,99.90
2022-09-29T00:03:28.740Z,99.90
2022-09-29T00:05:56.375Z,99.90
2022-09-29T00:08:25.466Z,99.90
2022-09-29T00:10:52.263Z,99.90
2022-09-29T00:13:19.542Z,99.90
2022-09-29T00:15:55.505Z,99.90
2022-09-29T00:18:22.768Z,99.90
2022-09-29T00:20:56.562Z,99.90
2022-09-29T00:23:23.895Z,99.90
2022-09-29T00:26:03.331Z,99.90
2022-09-29T00:28:30.395Z,99.90
2022-09-29T00:30:58.829Z,99.90
2022-09-29T00:33:26.259Z,99.90
2022-09-29T00:36:00.903Z,99.90
2022-09-29T00:38:28.534Z,99.90
2022-09-29T00:40:55.187Z,99.90
2022-09-29T00:43:25.354Z,99.90
2022-09-29T00:45:54.449Z,99.90
2022-09-29T00:48:29.709Z,99.90
2022-09-29T00:50:56.812Z,99.90
2022-09-29T00:53:24.439Z,99.90
2022-09-29T00:55:55.929Z,99.90
2022-09-29T00:58:30.309Z,99.90
2022-09-29T01:00:56.914Z,99.90
2022-09-29T01:03:28.194Z,99.90
2022-09-29T01:05:57.941Z,99.90
2022-09-29T01:08:28.353Z,99.90
2022-09-29T01:10:56.852Z,99.90
2022-09-29T01:13:24.451Z,99.90
2022-09-29T01:15:51.052Z,99.90
2022-09-29T01:18:17.825Z,99.90
2022-09-29T01:20:55.212Z,99.90
2022-09-29T01:23:53.842Z,99.90
2022-09-29T01:26:49.432Z,99.90
2022-09-29T01:29:38.619Z,99.90
2022-09-29T01:32:11.462Z,99.90
2022-09-29T01:34:44.449Z,99.90
2022-09-29T01:37:20.213Z,99.90
2022-09-29T01:39:55.521Z,99.90
2022-09-29T01:42:27.059Z,99.90
2022-09-29T01:44:58.430Z,99.90
2022-09-29T01:47:29.065Z,99.90
2022-09-29T01:49:59.863Z,99.90
2022-09-29T01:52:30.532Z,99.90
2022-09-29T01:55:00.151Z,99.90
2022-09-29T01:57:31.890Z,99.90
2022-09-29T02:00:04.017Z,99.90
2022-09-29T02:02:37.589Z,99.90
2022-09-29T02:05:09.688Z,99.90
2022-09-29T02:07:39.544Z,99.90
2022-09-29T02:10:11.746Z,99.90
2022-09-29T02:16:29.690Z,99.90
2022-09-29T02:19:02.147Z,99.90
2022-09-29T02:21:28.759Z,99.90
2022-09-29T02:23:56.078Z,99.90
2022-09-29T02:26:24.127Z,99.90
2022-09-29T02:28:51.619Z,99.90
2022-09-29T02:31:19.346Z,99.90
2022-09-29T02:33:45.896Z,99.90
2022-09-29T02:36:22.342Z,99.90
2022-09-29T02:38:56.481Z,99.90
2022-09-29T02:41:34.485Z,99.90
2022-09-29T02:44:24.309Z,99.90
2022-09-29T02:47:07.941Z,99.90
2022-09-29T02:49:51.707Z,99.90
2022-09-29T02:52:25.869Z,99.90
2022-09-29T02:55:16.886Z,99.90
2022-09-29T02:57:49.381Z,99.90
2022-09-29T03:00:17.608Z,99.90
2022-09-29T03:02:45.032Z,99.90
2022-09-29T03:05:14.227Z,99.90
2022-09-29T03:07:41.637Z,99.90
2022-09-29T03:10:09.661Z,99.90
2022-09-29T03:12:36.477Z,99.90
2022-09-29T03:15:04.128Z,99.90
2022-09-29T03:17:30.912Z,99.90
2022-09-29T03:19:57.670Z,99.90
2022-09-29T03:22:24.588Z,99.90
2022-09-29T03:24:52.211Z,99.90
2022-09-29T03:27:18.896Z,99.90
2022-09-29T03:29:45.483Z,99.90
2022-09-29T03:32:12.029Z,99.90
2022-09-29T03:34:38.539Z,99.90
2022-09-29T03:37:05.167Z,99.90
2022-09-29T03:39:31.753Z,99.90
2022-09-29T03:41:58.950Z,99.90
2022-09-29T03:44:25.712Z,99.90
2022-09-29T03:46:52.279Z,99.90
2022-09-29T03:49:18.878Z,99.90
2022-09-29T03:51:45.610Z,99.90
2022-09-29T03:54:12.160Z,99.90
2022-09-29T03:56:38.838Z,99.90
2022-09-29T03:59:08.635Z,99.90
2022-09-29T04:01:35.829Z,99.90
2022-09-29T04:04:02.610Z,99.90
2022-09-29T04:06:29.157Z,99.90
2022-09-29T04:08:55.687Z,99.90
2022-09-29T04:11:22.231Z,99.90
2022-09-29T04:13:48.775Z,99.90
2022-09-29T04:16:16.035Z,99.90
2022-09-29T04:18:42.668Z,99.90
2022-09-29T04:21:09.621Z,99.90
2022-09-29T04:23:36.284Z,99.90
2022-09-29T04:26:03.312Z,99.90
2022-09-29T04:28:30.957Z,99.90
2022-09-29T04:30:57.876Z,99.90
2022-09-29T04:33:25.171Z,99.90
2022-09-29T04:35:51.761Z,99.90
2022-09-29T04:38:18.329Z,99.90
2022-09-29T04:40:44.958Z,99.90
2022-09-29T04:43:11.614Z,99.90
2022-09-29T04:45:38.244Z,99.90
2022-09-29T04:48:05.075Z,99.90
2022-09-29T04:50:32.498Z,99.90
2022-09-29T04:52:59.112Z,99.90
2022-09-29T04:55:25.782Z,99.90
2022-09-29T04:57:52.450Z,99.90
2022-09-29T05:00:19.807Z,99.90
2022-09-29T05:02:49.660Z,99.90
2022-09-29T05:05:17.042Z,99.90
2022-09-29T05:07:48.210Z,99.90
2022-09-29T05:10:14.898Z,99.90
2022-09-29T05:12:46.663Z,99.90
2022-09-29T05:15:13.274Z,99.90
2022-09-29T05:17:39.858Z,99.90
2022-09-29T05:20:06.829Z,99.90
2022-09-29T05:22:33.527Z,99.90
2022-09-29T05:25:01.289Z,99.90
2022-09-29T05:27:27.892Z,99.90
2022-09-29T05:29:56.878Z,99.90
2022-09-29T05:32:23.456Z,99.90
2022-09-29T05:34:50.072Z,99.90
2022-09-29T05:37:17.599Z,99.90
2022-09-29T05:39:44.416Z,99.90
2022-09-29T05:42:12.082Z,99.90
2022-09-29T05:44:38.668Z,99.90
2022-09-29T05:47:05.388Z,99.90
2022-09-29T05:49:32.471Z,99.90
2022-09-29T05:51:59.855Z,99.90
2022-09-29T05:54:27.001Z,99.90
2022-09-29T05:56:53.607Z,99.90
2022-09-29T05:59:21.009Z,99.90
2022-09-29T06:01:47.775Z,99.90
2022-09-29T06:04:14.750Z,99.90
2022-09-29T06:06:41.969Z,99.90
2022-09-29T06:09:08.728Z,99.90
2022-09-29T06:11:35.279Z,99.90
2022-09-29T06:14:03.665Z,99.90
2022-09-29T06:16:32.933Z,99.90
2022-09-29T06:19:00.776Z,99.90
2022-09-29T06:21:29.236Z,99.90
2022-09-29T06:23:56.971Z,99.90
2022-09-29T06:26:26.502Z,99.90
2022-09-29T06:28:53.625Z,99.90
2022-09-29T06:31:24.118Z,99.90
2022-09-29T06:33:51.916Z,99.90
2022-09-29T06:36:38.168Z,99.90
2022-09-29T06:39:05.991Z,99.90
2022-09-29T06:41:33.669Z,99.90
2022-09-29T06:44:00.943Z,99.90
2022-09-29T06:46:27.560Z,99.90
2022-09-29T06:48:55.201Z,99.90
2022-09-29T06:51:22.814Z,99.90
2022-09-29T06:53:59.308Z,99.90
2022-09-29T06:56:30.169Z,99.90
2022-09-29T06:58:56.747Z,99.90
2022-09-29T07:01:23.387Z,99.90
2022-09-29T07:03:49.997Z,99.90
2022-09-29T07:06:20.686Z,99.90
2022-09-29T07:08:47.463Z,99.90
2022-09-29T07:11:14.367Z,99.90
2022-09-29T07:13:40.957Z,99.90
2022-09-29T07:16:09.964Z,99.90
2022-09-29T07:18:39.103Z,99.90
2022-09-29T07:21:06.521Z,99.90
2022-09-29T07:23:34.020Z,99.90
2022-09-29T07:26:00.679Z,99.90
2022-09-29T07:28:27.479Z,99.90
2022-09-29T07:31:12.469Z,99.90
2022-09-29T07:33:40.654Z,99.90
2022-09-29T07:36:07.683Z,99.90
2022-09-29T07:38:35.411Z,99.90
2022-09-29T07:41:02.639Z,99.90
2022-09-29T07:43:30.577Z,99.90
2022-09-29T07:45:59.535Z,99.90
2022-09-29T07:48:31.392Z,99.90
2022-09-29T07:51:02.209Z,99.90
2022-09-29T07:53:29.045Z,99.90
2022-09-29T07:56:01.656Z,99.90
2022-09-29T07:58:28.240Z,99.90
2022-09-29T08:00:55.150Z,99.90
2022-09-29T08:03:22.580Z,99.90
2022-09-29T08:05:49.117Z,99.90
2022-09-29T08:08:15.684Z,99.90
2022-09-29T08:10:51.760Z,99.90
2022-09-29T08:13:19.725Z,99.90
2022-09-29T08:15:46.422Z,99.90
2022-09-29T08:18:12.966Z,99.90
2022-09-29T08:20:39.513Z,99.90
2022-09-29T08:23:06.237Z,99.90
2022-09-29T08:25:33.124Z,99.90
2022-09-29T08:27:59.972Z,99.90
2022-09-29T08:30:27.174Z,99.90
2022-09-29T08:32:54.576Z,99.90
2022-09-29T08:35:21.191Z,99.90
2022-09-29T08:37:48.159Z,99.90
2022-09-29T08:40:15.406Z,99.90
2022-09-29T08:42:51.458Z,99.90
2022-09-29T08:45:27.041Z,99.90
2022-09-29T08:48:05.158Z,99.90
2022-09-29T08:50:41.381Z,99.90
2022-09-29T08:53:23.529Z,99.90
2022-09-29T08:55:59.921Z,99.90
2022-09-29T08:58:26.862Z,99.90
2022-09-29T09:01:02.822Z,99.90
2022-09-29T09:03:58.447Z,99.90
2022-09-29T09:06:45.295Z,99.90
2022-09-29T09:09:27.359Z,99.90
2022-09-29T09:12:13.224Z,99.90
2022-09-29T09:14:56.247Z,99.90
2022-09-29T09:17:34.508Z,99.90
2022-09-29T09:20:13.916Z,99.90
2022-09-29T09:22:50.130Z,99.90
2022-09-29T09:25:26.850Z,99.90
2022-09-29T09:28:05.249Z,99.90
2022-09-29T09:30:40.259Z,99.90
2022-09-29T09:33:26.970Z,99.90
2022-09-29T09:36:02.185Z,99.90
2022-09-29T09:38:40.044Z,99.90
2022-09-29T09:41:08.925Z,99.90
2022-09-29T09:43:49.625Z,99.90
2022-09-29T09:46:23.676Z,99.90
2022-09-29T09:48:58.332Z,99.90
2022-09-29T09:51:35.742Z,99.90
2022-09-29T09:54:09.260Z,99.90
2022-09-29T09:56:51.978Z,99.90
2022-09-29T09:59:33.360Z,99.90
2022-09-29T10:01:59.987Z,99.90
2022-09-29T10:04:27.360Z,99.90
2022-09-29T10:06:56.476Z,99.90
2022-09-29T10:09:23.479Z,99.90
2022-09-29T10:11:50.497Z,99.90
2022-09-29T10:14:25.153Z,99.90
2022-09-29T10:16:54.861Z,99.90
2022-09-29T10:19:22.772Z,99.90
2022-09-29T10:21:49.565Z,99.90
2022-09-29T10:24:26.642Z,99.90
2022-09-29T10:26:56.071Z,99.90
2022-09-29T10:29:27.960Z,99.90
2022-09-29T10:32:05.182Z,99.90
2022-09-29T10:34:33.787Z,99.90
2022-09-29T10:37:02.496Z,99.90
2022-09-29T10:39:44.876Z,99.90
2022-09-29T10:42:22.819Z,99.90
2022-09-29T10:45:01.036Z,99.90
2022-09-29T10:47:28.105Z,99.90
2022-09-29T10:50:11.800Z,99.90
2022-09-29T10:52:43.036Z,99.90
2022-09-29T10:55:17.642Z,99.90
2022-09-29T10:57:46.061Z,99.90
2022-09-29T11:00:29.521Z,99.90
2022-09-29T11:03:07.358Z,99.90
2022-09-29T11:05:35.943Z,99.90
2022-09-29T11:08:02.901Z,99.90
2022-09-29T11:10:32.538Z,99.90
2022-09-29T11:13:13.947Z,99.90
2022-09-29T11:15:43.707Z,99.90
2022-09-29T11:18:21.746Z,99.90
2022-09-29T11:20:55.926Z,99.90
2022-09-29T11:23:33.313Z,99.90
2022-09-29T11:26:26.052Z,99.90
2022-09-29T11:29:25.657Z,99.90
2022-09-29T11:32:10.102Z,99.90
2022-09-29T11:34:55.549Z,99.90
2022-09-29T11:37:38.908Z,99.90
2022-09-29T11:40:12.454Z,99.90
2022-09-29T11:43:04.445Z,99.90
2022-09-29T11:45:38.607Z,99.90
2022-09-29T11:48:30.798Z,99.90
2022-09-29T11:51:06.656Z,99.90
2022-09-29T11:53:50.524Z,99.90
2022-09-29T11:56:31.171Z,99.90
2022-09-29T11:59:14.404Z,99.90
2022-09-29T12:01:54.596Z,99.90
2022-09-29T12:04:38.455Z,99.90
2022-09-29T12:07:17.837Z,99.90
2022-09-29T12:10:09.351Z,99.90
2022-09-29T12:12:46.696Z,99.90
2022-09-29T12:15:28.597Z,99.90
2022-09-29T12:18:01.809Z,99.90
2022-09-29T12:20:33.192Z,99.90
2022-09-29T12:23:04.995Z,99.90
2022-09-29T12:25:36.334Z,99.90
2022-09-29T12:28:09.823Z,99.90
2022-09-29T12:30:43.601Z,99.90
2022-09-29T12:33:16.064Z,99.90
2022-09-29T12:35:48.358Z,99.90
2022-09-29T12:38:19.693Z,99.90
2022-09-29T12:40:54.907Z,99.90
2022-09-29T12:43:29.763Z,99.90
2022-09-29T12:46:03.630Z,99.90
2022-09-29T12:48:47.254Z,99.90
2022-09-29T12:51:20.237Z,99.90
2022-09-29T12:53:59.872Z,99.90
2022-09-29T12:56:30.627Z,99.90
2022-09-29T12:59:02.230Z,99.90
2022-09-29T13:01:33.169Z,99.90
2022-09-29T13:04:25.727Z,99.90
2022-09-29T13:07:09.392Z,99.90
2022-09-29T13:09:56.058Z,99.90
2022-09-29T13:12:38.481Z,99.90
2022-09-29T13:15:29.683Z,99.90
2022-09-29T13:18:20.832Z,99.90
2022-09-29T13:21:09.173Z,99.90
2022-09-29T13:23:58.581Z,99.90
2022-09-29T13:26:39.739Z,99.90
2022-09-29T13:29:12.772Z,94.00
2022-09-29T13:34:25.323Z,73.40
2022-09-29T13:36:52.740Z,64.30
2022-09-29T13:39:23.274Z,59.70
2022-09-29T13:41:54.999Z,55.60
2022-09-29T13:44:25.698Z,59.60
2022-09-29T13:46:54.213Z,67.00
2022-09-29T13:49:28.338Z,74.60
2022-09-29T13:51:57.134Z,81.50
2022-09-29T13:54:35.365Z,88.10
2022-09-29T13:57:07.858Z,90.00
2022-09-29T13:59:35.504Z,89.60
2022-09-29T14:02:18.038Z,91.50
2022-09-29T14:04:52.467Z,93.30
2022-09-29T14:07:35.447Z,96.10
2022-09-29T14:10:14.636Z,96.70
2022-09-29T14:12:42.134Z,97.90
2022-09-29T14:15:12.830Z,97.20
2022-09-29T14:17:46.345Z,97.90
2022-09-29T14:20:19.310Z,98.00
2022-09-29T14:23:00.663Z,98.20
2022-09-29T14:25:54.680Z,99.30
2022-09-29T14:28:38.468Z,99.60
2022-09-29T14:31:20.282Z,99.90
2022-09-29T14:33:49.192Z,99.90
2022-09-29T14:36:23.523Z,99.90
2022-09-29T14:39:21.445Z,99.90
2022-09-29T14:41:42.761Z,99.90
2022-09-29T14:44:12.522Z,99.90
2022-09-29T14:47:21.652Z,99.90
2022-09-29T14:50:43.908Z,99.90
2022-09-29T14:53:27.444Z,99.90
2022-09-29T14:56:04.923Z,99.90
2022-09-29T14:58:47.634Z,99.90
2022-09-29T15:01:23.525Z,99.90
2022-09-29T15:03:51.732Z,99.90
2022-09-29T15:06:20.449Z,99.90
2022-09-29T15:08:55.984Z,99.90
2022-09-29T15:11:28.666Z,99.90
2022-09-29T15:13:55.937Z,99.90
2022-09-29T15:16:39.418Z,99.90
2022-09-29T15:19:32.578Z,99.90
2022-09-29T15:22:12.482Z,99.90
2022-09-29T15:24:59.307Z,99.90
2022-09-29T15:27:26.102Z,99.90
2022-09-29T15:29:55.958Z,99.90
2022-09-29T15:32:25.970Z,99.90
2022-09-29T15:34:59.499Z,99.90
2022-09-29T15:37:26.514Z,99.90
2022-09-29T15:39:54.055Z,99.90
2022-09-29T15:42:23.139Z,99.90
2022-09-29T15:44:58.091Z,99.90
2022-09-29T15:47:34.060Z,99.90
2022-09-29T15:50:05.251Z,99.90
2022-09-29T15:52:34.153Z,99.90
2022-09-29T15:55:01.385Z,99.90
2022-09-29T15:57:43.177Z,99.90
2022-09-29T16:00:39.669Z,99.90
2022-09-29T16:03:12.189Z,99.90
2022-09-29T16:05:44.674Z,99.90
2022-09-29T16:08:16.080Z,99.90
2022-09-29T16:10:54.320Z,99.90
2022-09-29T16:13:25.997Z,99.90
2022-09-29T16:15:56.591Z,99.90
2022-09-29T16:18:26.232Z,99.90
2022-09-29T16:20:57.917Z,99.90
2022-09-29T16:23:29.323Z,99.90
2022-09-29T16:26:19.546Z,99.90
2022-09-29T16:29:03.364Z,99.90
2022-09-29T16:31:31.218Z,99.90
2022-09-29T16:34:00.213Z,99.90
2022-09-29T16:36:31.549Z,99.90
2022-09-29T16:38:58.244Z,99.90
2022-09-29T16:41:34.866Z,99.90
2022-09-29T16:44:16.575Z,99.90
2022-09-29T16:46:47.622Z,99.90
2022-09-29T16:49:16.617Z,99.90
2022-09-29T16:51:45.361Z,99.90
2022-09-29T16:54:17.308Z,99.90
2022-09-29T16:56:46.185Z,99.90
2022-09-29T16:59:15.468Z,99.90
2022-09-29T17:01:43.270Z,99.90
2022-09-29T17:04:11.523Z,99.90
2022-09-29T17:06:46.630Z,99.90
2022-09-29T17:09:20.142Z,99.90
2022-09-29T17:11:48.741Z,99.90
2022-09-29T17:14:17.694Z,99.90
2022-09-29T17:16:44.677Z,99.90
2022-09-29T17:19:11.799Z,99.90
2022-09-29T17:21:38.396Z,99.90
2022-09-29T17:24:05.393Z,99.90
2022-09-29T17:26:57.096Z,99.90
2022-09-29T17:29:24.564Z,99.90
2022-09-29T17:31:51.191Z,99.90
2022-09-29T17:34:26.682Z,99.90
2022-09-29T17:36:53.650Z,99.90
2022-09-29T17:39:20.293Z,99.90
2022-09-29T17:41:48.089Z,99.90
2022-09-29T17:44:14.737Z,99.90
2022-09-29T17:46:42.321Z,99.90
2022-09-29T17:49:11.697Z,99.90
2022-09-29T17:51:38.933Z,99.90
2022-09-29T17:54:05.538Z,99.90
2022-09-29T17:56:38.535Z,99.90
2022-09-29T17:59:05.495Z,99.90
2022-09-29T18:01:33.951Z,99.90
2022-09-29T18:04:01.801Z,99.90
2022-09-29T18:06:28.675Z,99.90
2022-09-29T18:08:56.843Z,99.90
2022-09-29T18:11:25.627Z,99.90
2022-09-29T18:13:52.368Z,99.90
2022-09-29T18:16:20.847Z,99.90
2022-09-29T18:18:48.051Z,99.90
2022-09-29T18:21:20.482Z,99.90
2022-09-29T18:23:47.549Z,99.90
2022-09-29T18:26:14.756Z,99.90
2022-09-29T18:28:41.587Z,99.90
2022-09-29T18:31:17.330Z,99.90
2022-09-29T18:33:43.982Z,99.90
2022-09-29T18:36:11.807Z,99.90
2022-09-29T18:38:39.053Z,99.90
2022-09-29T18:41:09.984Z,99.90
2022-09-29T18:43:37.234Z,99.90
2022-09-29T18:46:05.267Z,99.90
2022-09-29T18:48:31.903Z,99.90
2022-09-29T18:50:58.507Z,99.90
2022-09-29T18:53:25.398Z,99.90
2022-09-29T18:55:55.775Z,99.90
2022-09-29T18:58:22.739Z,99.90
2022-09-29T19:00:53.177Z,99.90
2022-09-29T19:03:20.310Z,99.90
2022-09-29T19:05:47.270Z,99.90
2022-09-29T19:08:15.304Z,99.90
2022-09-29T19:10:48.631Z,99.90
2022-09-29T19:13:15.958Z,99.90
2022-09-29T19:15:45.333Z,99.90
2022-09-29T19:18:17.702Z,99.90
2022-09-29T19:20:44.848Z,99.90
2022-09-29T19:23:11.523Z,99.90
2022-09-29T19:25:39.919Z,99.90
2022-09-29T19:28:07.012Z,99.90
2022-09-29T19:30:37.596Z,99.90
2022-09-29T19:33:05.104Z,99.90
2022-09-29T19:35:32.053Z,99.90
2022-09-29T19:37:58.718Z,99.90
2022-09-29T19:40:28.266Z,99.90
2022-09-29T19:42:57.700Z,99.90
2022-09-29T19:45:24.640Z,99.90
2022-09-29T19:47:56.248Z,99.90
2022-09-29T19:50:42.652Z,99.90
2022-09-29T19:55:41.423Z,99.90
2022-09-29T19:58:08.458Z,99.90
2022-09-29T20:00:35.406Z,99.90
2022-09-29T20:03:02.751Z,99.90
2022-09-29T20:05:29.480Z,99.90
2022-09-29T20:07:56.099Z,99.90
2022-09-29T20:10:26.895Z,99.90
2022-09-29T20:12:53.698Z,99.90
2022-09-29T20:15:20.895Z,99.90
2022-09-29T20:17:48.410Z,99.90
2022-09-29T20:20:16.443Z,99.90
2022-09-29T20:22:43.039Z,99.90
2022-09-29T20:25:11.930Z,99.90
2022-09-29T20:27:39.819Z,99.90
2022-09-29T20:30:08.091Z,99.90
2022-09-29T20:32:34.811Z,99.90
2022-09-29T20:35:01.894Z,99.90
2022-09-29T20:37:29.255Z,99.90
2022-09-29T20:39:57.121Z,99.90
2022-09-29T20:42:23.923Z,99.90
2022-09-29T20:44:54.171Z,99.90
2022-09-29T20:47:21.125Z,99.90
2022-09-29T20:49:47.780Z,99.90
2022-09-29T20:52:14.336Z,99.90
2022-09-29T20:54:41.963Z,99.90
2022-09-29T20:57:08.624Z,99.90
2022-09-29T20:59:35.958Z,99.90
2022-09-29T21:02:02.839Z,99.90
2022-09-29T21:04:29.692Z,99.90
2022-09-29T21:06:56.363Z,99.90
2022-09-29T21:09:23.776Z,99.90
2022-09-29T21:11:53.023Z,99.90
2022-09-29T21:14:22.806Z,99.90
2022-09-29T21:16:50.641Z,99.90
2022-09-29T21:19:17.791Z,99.90
2022-09-29T21:21:44.596Z,99.90
2022-09-29T21:24:11.771Z,99.90
2022-09-29T21:26:38.792Z,99.90
2022-09-29T21:29:08.550Z,99.90
2022-09-29T21:31:35.943Z,99.90
2022-09-29T21:34:04.363Z,99.90
2022-09-29T21:36:34.210Z,99.90
2022-09-29T21:39:04.997Z,99.90
2022-09-29T21:41:36.110Z,99.90
2022-09-29T21:44:08.240Z,99.90
2022-09-29T21:46:34.941Z,99.90
2022-09-29T21:49:03.626Z,99.90
2022-09-29T21:51:31.742Z,99.90
2022-09-29T21:54:00.612Z,99.90
2022-09-29T21:56:29.865Z,99.90
2022-09-29T21:58:57.564Z,99.90
2022-09-29T22:01:26.604Z,99.90
2022-09-29T22:03:55.314Z,99.90
2022-09-29T22:06:23.832Z,99.90
2022-09-29T22:08:50.949Z,99.90
2022-09-29T22:11:19.162Z,99.90
2022-09-29T22:13:49.740Z,99.90
2022-09-29T22:16:18.189Z,99.90
2022-09-29T22:18:52.572Z,99.90
2022-09-29T22:21:27.342Z,99.90
2022-09-29T22:23:54.652Z,99.90
2022-09-29T22:26:21.385Z,99.90
2022-09-29T22:28:48.539Z,99.90
2022-09-29T22:31:15.726Z,99.90
2022-09-29T22:33:44.017Z,99.90
2022-09-29T22:36:11.867Z,99.90
2022-09-29T22:38:42.062Z,99.90
2022-09-29T22:41:09.988Z,99.90
2022-09-29T22:43:36.673Z,99.90
2022-09-29T22:46:03.408Z,99.90
2022-09-29T22:48:30.135Z,99.90
2022-09-29T22:50:56.723Z,99.90
2022-09-29T22:53:24.197Z,99.90
2022-09-29T22:55:50.774Z,99.90
2022-09-29T22:58:17.383Z,99.90
2022-09-29T23:00:43.917Z,99.90
2022-09-29T23:03:11.092Z,99.90
2022-09-29T23:05:40.196Z,99.90
2022-09-29T23:08:06.799Z,99.90
2022-09-29T23:10:35.592Z,99.90
2022-09-29T23:13:05.653Z,99.90
2022-09-29T23:15:32.395Z,99.90
2022-09-29T23:17:59.317Z,99.90
2022-09-29T23:20:26.198Z,99.90
2022-09-29T23:22:52.806Z,99.90
2022-09-29T23:25:19.369Z,99.90
2022-09-29T23:27:46.545Z,99.90
2022-09-29T23:30:13.074Z,99.90
2022-09-29T23:32:39.695Z,99.90
2022-09-29T23:35:06.801Z,99.90
2022-09-29T23:37:47.986Z,99.90
2022-09-29T23:40:14.710Z,99.90
2022-09-29T23:42:41.294Z,99.90
2022-09-29T23:45:08.866Z,99.90
2022-09-29T23:47:35.733Z,99.90
2022-09-29T23:50:02.473Z,99.90
2022-09-29T23:52:29.112Z,99.90
2022-09-29T23:54:55.631Z,99.90
2022-09-29T23:57:23.681Z,99.90
2022-09-29T23:59:50.317Z,99.90
